sensor_id;sensor_type;location;lat;lon;timestamp;pressure;altitude;pressure_sealevel;temperature;humidity
45523;BME280;31254;51.680;5.394;2023-04-10T00:02:25;102129.84;;;9.74;65.25
45523;BME280;31254;51.680;5.394;2023-04-10T00:04:52;102133.44;;;9.74;65.37
45523;BME280;31254;51.680;5.394;2023-04-10T00:07:19;102117.97;;;9.62;65.18
45523;BME280;31254;51.680;5.394;2023-04-10T00:09:47;102129.19;;;9.70;65.59
45523;BME280;31254;51.680;5.394;2023-04-10T00:12:14;102122.97;;;9.68;65.76
45523;BME280;31254;51.680;5.394;2023-04-10T00:14:41;102061.94;;;9.33;66.11
45523;BME280;31254;51.680;5.394;2023-04-10T00:17:10;102078.69;;;9.40;66.02
45523;BME280;31254;51.680;5.394;2023-04-10T00:19:37;102102.84;;;9.58;66.37
45523;BME280;31254;51.680;5.394;2023-04-10T00:22:04;102100.03;;;9.59;66.15
45523;BME280;31254;51.680;5.394;2023-04-10T00:24:31;102083.47;;;9.49;66.48
45523;BME280;31254;51.680;5.394;2023-04-10T00:27:04;102095.88;;;9.54;66.25
45523;BME280;31254;51.680;5.394;2023-04-10T00:29:31;102097.84;;;9.51;66.30
45523;BME280;31254;51.680;5.394;2023-04-10T00:31:58;102085.19;;;9.50;66.56
45523;BME280;31254;51.680;5.394;2023-04-10T00:34:26;102085.31;;;9.49;66.83
45523;BME280;31254;51.680;5.394;2023-04-10T00:36:55;102081.84;;;9.47;67.16
45523;BME280;31254;51.680;5.394;2023-04-10T00:39:22;102075.53;;;9.46;66.77
45523;BME280;31254;51.680;5.394;2023-04-10T00:41:49;102080.44;;;9.41;66.88
45523;BME280;31254;51.680;5.394;2023-04-10T00:44:16;102040.63;;;9.14;67.15
45523;BME280;31254;51.680;5.394;2023-04-10T00:46:43;102063.91;;;9.31;67.17
45523;BME280;31254;51.680;5.394;2023-04-10T00:49:10;102076.41;;;9.34;67.48
45523;BME280;31254;51.680;5.394;2023-04-10T00:51:37;102056.53;;;9.21;67.59
45523;BME280;31254;51.680;5.394;2023-04-10T00:54:07;102073.16;;;9.29;68.05
45523;BME280;31254;51.680;5.394;2023-04-10T00:56:36;102054.00;;;9.18;67.94
45523;BME280;31254;51.680;5.394;2023-04-10T00:59:05;102069.81;;;9.25;67.59
45523;BME280;31254;51.680;5.394;2023-04-10T01:01:35;102071.78;;;9.23;68.12
45523;BME280;31254;51.680;5.394;2023-04-10T01:04:04;102069.06;;;9.23;67.90
45523;BME280;31254;51.680;5.394;2023-04-10T01:15:24;102056.19;;;9.25;67.73
45523;BME280;31254;51.680;5.394;2023-04-10T01:20:40;102024.63;;;9.10;67.60
45523;BME280;31254;51.680;5.394;2023-04-10T01:23:45;102019.50;;;9.05;67.43
45523;BME280;31254;51.680;5.394;2023-04-10T01:26:33;102042.91;;;9.21;67.61
45523;BME280;31254;51.680;5.394;2023-04-10T01:29:08;102046.16;;;9.26;68.03
45523;BME280;31254;51.680;5.394;2023-04-10T01:31:40;102032.22;;;9.18;67.57
45523;BME280;31254;51.680;5.394;2023-04-10T01:34:16;102027.53;;;9.20;67.92
45523;BME280;31254;51.680;5.394;2023-04-10T01:36:59;102052.13;;;9.31;67.89
45523;BME280;31254;51.680;5.394;2023-04-10T01:39:28;102035.25;;;9.26;67.71
45523;BME280;31254;51.680;5.394;2023-04-10T01:41:57;102022.09;;;9.20;67.19
45523;BME280;31254;51.680;5.394;2023-04-10T01:44:28;102030.78;;;9.25;67.63
45523;BME280;31254;51.680;5.394;2023-04-10T01:46:56;102031.13;;;9.33;67.49
45523;BME280;31254;51.680;5.394;2023-04-10T01:49:27;102006.75;;;9.19;67.62
45523;BME280;31254;51.680;5.394;2023-04-10T01:52:01;102000.41;;;9.18;67.82
45523;BME280;31254;51.680;5.394;2023-04-10T01:54:35;102007.16;;;9.25;68.02
45523;BME280;31254;51.680;5.394;2023-04-10T01:57:03;101982.47;;;9.15;67.77
45523;BME280;31254;51.680;5.394;2023-04-10T01:59:30;102011.41;;;9.29;67.83
45523;BME280;31254;51.680;5.394;2023-04-10T02:02:00;102018.38;;;9.33;67.83
45523;BME280;31254;51.680;5.394;2023-04-10T02:04:27;102009.34;;;9.33;67.45
45523;BME280;31254;51.680;5.394;2023-04-10T02:12:38;101978.41;;;9.21;67.65
45523;BME280;31254;51.680;5.394;2023-04-10T02:15:07;101992.81;;;9.23;68.10
45523;BME280;31254;51.680;5.394;2023-04-10T02:17:37;101984.88;;;9.20;67.78
45523;BME280;31254;51.680;5.394;2023-04-10T02:20:06;101982.25;;;9.19;67.79
45523;BME280;31254;51.680;5.394;2023-04-10T02:22:35;101964.50;;;9.13;67.73
45523;BME280;31254;51.680;5.394;2023-04-10T02:25:03;101983.13;;;9.19;67.90
45523;BME280;31254;51.680;5.394;2023-04-10T02:27:33;101991.47;;;9.29;67.78
45523;BME280;31254;51.680;5.394;2023-04-10T02:30:03;101987.88;;;9.28;67.77
45523;BME280;31254;51.680;5.394;2023-04-10T02:32:31;101954.84;;;9.09;67.83
45523;BME280;31254;51.680;5.394;2023-04-10T02:35:05;101970.81;;;9.13;67.37
45523;BME280;31254;51.680;5.394;2023-04-10T02:37:33;101988.13;;;9.25;67.81
45523;BME280;31254;51.680;5.394;2023-04-10T02:40:01;101941.50;;;8.93;67.77
45523;BME280;31254;51.680;5.394;2023-04-10T02:42:28;101945.28;;;8.90;67.88
45523;BME280;31254;51.680;5.394;2023-04-10T02:44:56;101991.91;;;9.23;68.41
45523;BME280;31254;51.680;5.394;2023-04-10T02:47:23;101997.47;;;9.21;68.28
45523;BME280;31254;51.680;5.394;2023-04-10T02:49:50;101992.16;;;9.20;68.28
45523;BME280;31254;51.680;5.394;2023-04-10T02:52:17;101868.09;;;8.41;68.53
45523;BME280;31254;51.680;5.394;2023-04-10T02:54:44;101993.16;;;9.19;68.61
45523;BME280;31254;51.680;5.394;2023-04-10T02:57:11;101990.66;;;9.15;68.54
45523;BME280;31254;51.680;5.394;2023-04-10T02:59:41;101984.31;;;9.15;68.92
45523;BME280;31254;51.680;5.394;2023-04-10T03:02:10;101993.81;;;9.09;68.87
45523;BME280;31254;51.680;5.394;2023-04-10T03:04:40;101999.03;;;9.12;68.60
45523;BME280;31254;51.680;5.394;2023-04-10T03:07:06;101964.00;;;8.95;68.80
45523;BME280;31254;51.680;5.394;2023-04-10T03:09:33;101979.38;;;8.96;68.67
45523;BME280;31254;51.680;5.394;2023-04-10T03:12:00;101996.00;;;9.04;68.76
45523;BME280;31254;51.680;5.394;2023-04-10T03:14:28;101976.56;;;8.85;69.45
45523;BME280;31254;51.680;5.394;2023-04-10T03:16:57;101995.91;;;8.93;69.13
45523;BME280;31254;51.680;5.394;2023-04-10T03:19:26;102003.88;;;8.96;69.01
45523;BME280;31254;51.680;5.394;2023-04-10T03:21:53;101994.50;;;8.87;69.13
45523;BME280;31254;51.680;5.394;2023-04-10T03:24:20;102002.34;;;8.92;69.22
45523;BME280;31254;51.680;5.394;2023-04-10T03:26:47;101992.22;;;8.81;69.60
45523;BME280;31254;51.680;5.394;2023-04-10T03:29:13;102001.06;;;8.85;69.67
45523;BME280;31254;51.680;5.394;2023-04-10T03:31:44;101995.81;;;8.82;69.78
45523;BME280;31254;51.680;5.394;2023-04-10T03:34:11;101982.13;;;8.70;70.02
45523;BME280;31254;51.680;5.394;2023-04-10T03:36:38;101986.56;;;8.71;70.25
45523;BME280;31254;51.680;5.394;2023-04-10T03:39:05;101982.22;;;8.69;70.23
45523;BME280;31254;51.680;5.394;2023-04-10T03:41:34;101980.81;;;8.63;70.31
45523;BME280;31254;51.680;5.394;2023-04-10T03:44:01;101983.00;;;8.58;70.45
45523;BME280;31254;51.680;5.394;2023-04-10T03:46:29;101990.94;;;8.61;69.90
45523;BME280;31254;51.680;5.394;2023-04-10T03:48:56;101985.91;;;8.55;69.97
45523;BME280;31254;51.680;5.394;2023-04-10T03:51:23;101978.75;;;8.54;70.32
45523;BME280;31254;51.680;5.394;2023-04-10T03:53:55;101976.38;;;8.49;70.45
45523;BME280;31254;51.680;5.394;2023-04-10T03:56:22;101980.06;;;8.48;70.83
45523;BME280;31254;51.680;5.394;2023-04-10T03:58:49;101959.91;;;8.38;70.45
45523;BME280;31254;51.680;5.394;2023-04-10T04:01:16;101957.41;;;8.35;70.69
45523;BME280;31254;51.680;5.394;2023-04-10T04:03:43;101964.25;;;8.40;70.71
45523;BME280;31254;51.680;5.394;2023-04-10T04:06:16;101964.47;;;8.37;71.11
45523;BME280;31254;51.680;5.394;2023-04-10T04:08:43;101925.19;;;8.16;70.72
45523;BME280;31254;51.680;5.394;2023-04-10T04:11:17;101958.38;;;8.34;70.68
45523;BME280;31254;51.680;5.394;2023-04-10T04:13:48;101940.88;;;8.25;71.27
45523;BME280;31254;51.680;5.394;2023-04-10T04:16:21;101889.63;;;7.93;71.27
45523;BME280;31254;51.680;5.394;2023-04-10T04:18:48;101955.09;;;8.29;71.16
45523;BME280;31254;51.680;5.394;2023-04-10T04:21:15;101930.41;;;8.19;71.26
45523;BME280;31254;51.680;5.394;2023-04-10T04:23:42;101937.50;;;8.21;71.04
45523;BME280;31254;51.680;5.394;2023-04-10T04:26:10;101941.19;;;8.20;71.04
45523;BME280;31254;51.680;5.394;2023-04-10T04:28:40;101934.88;;;8.20;71.46
45523;BME280;31254;51.680;5.394;2023-04-10T04:31:09;101937.72;;;8.18;71.65
45523;BME280;31254;51.680;5.394;2023-04-10T04:33:36;101955.75;;;8.19;71.13
45523;BME280;31254;51.680;5.394;2023-04-10T04:36:06;101957.59;;;8.19;71.41
45523;BME280;31254;51.680;5.394;2023-04-10T04:38:33;101930.94;;;8.11;71.39
45523;BME280;31254;51.680;5.394;2023-04-10T04:41:00;101933.56;;;8.13;71.64
45523;BME280;31254;51.680;5.394;2023-04-10T04:43:26;101945.75;;;8.20;71.58
45523;BME280;31254;51.680;5.394;2023-04-10T04:45:53;101925.31;;;8.14;71.57
45523;BME280;31254;51.680;5.394;2023-04-10T04:48:22;101937.28;;;8.24;71.13
45523;BME280;31254;51.680;5.394;2023-04-10T04:50:49;101932.72;;;8.25;71.11
45523;BME280;31254;51.680;5.394;2023-04-10T04:53:16;101937.03;;;8.28;71.25
45523;BME280;31254;51.680;5.394;2023-04-10T04:55:43;101940.75;;;8.27;70.92
45523;BME280;31254;51.680;5.394;2023-04-10T04:58:09;101927.16;;;8.27;71.07
45523;BME280;31254;51.680;5.394;2023-04-10T05:00:36;101936.19;;;8.27;71.02
45523;BME280;31254;51.680;5.394;2023-04-10T05:03:03;101924.78;;;8.22;71.30
45523;BME280;31254;51.680;5.394;2023-04-10T05:05:32;101911.41;;;8.19;71.06
45523;BME280;31254;51.680;5.394;2023-04-10T05:07:59;101920.88;;;8.26;71.08
45523;BME280;31254;51.680;5.394;2023-04-10T05:10:27;101915.28;;;8.28;71.26
45523;BME280;31254;51.680;5.394;2023-04-10T05:12:56;101918.78;;;8.30;71.33
45523;BME280;31254;51.680;5.394;2023-04-10T05:15:26;101909.53;;;8.32;70.88
45523;BME280;31254;51.680;5.394;2023-04-10T05:18:01;101897.91;;;8.30;71.16
45523;BME280;31254;51.680;5.394;2023-04-10T05:20:33;101774.34;;;7.59;70.64
45523;BME280;31254;51.680;5.394;2023-04-10T05:23:03;101898.22;;;8.38;70.62
45523;BME280;31254;51.680;5.394;2023-04-10T05:25:31;101894.00;;;8.34;70.92
45523;BME280;31254;51.680;5.394;2023-04-10T05:27:58;101902.19;;;8.47;70.76
45523;BME280;31254;51.680;5.394;2023-04-10T05:30:27;101888.69;;;8.46;70.37
45523;BME280;31254;51.680;5.394;2023-04-10T05:32:58;101888.13;;;8.53;70.20
45523;BME280;31254;51.680;5.394;2023-04-10T05:35:25;101900.94;;;8.64;70.36
45523;BME280;31254;51.680;5.394;2023-04-10T05:37:52;101888.19;;;8.65;69.77
45523;BME280;31254;51.680;5.394;2023-04-10T05:40:19;101903.31;;;8.82;69.60
45523;BME280;31254;51.680;5.394;2023-04-10T05:42:49;101895.66;;;8.87;69.61
45523;BME280;31254;51.680;5.394;2023-04-10T05:45:16;101895.09;;;8.94;69.11
45523;BME280;31254;51.680;5.394;2023-04-10T05:47:44;101883.78;;;9.01;68.75
45523;BME280;31254;51.680;5.394;2023-04-10T05:50:13;101893.59;;;9.14;68.46
45523;BME280;31254;51.680;5.394;2023-04-10T05:52:43;101893.16;;;9.21;68.49
45523;BME280;31254;51.680;5.394;2023-04-10T05:55:12;101900.69;;;9.41;68.04
45523;BME280;31254;51.680;5.394;2023-04-10T05:57:39;101900.97;;;9.49;67.85
45523;BME280;31254;51.680;5.394;2023-04-10T06:00:06;101905.13;;;9.66;67.36
45523;BME280;31254;51.680;5.394;2023-04-10T06:02:37;101902.19;;;9.81;66.77
45523;BME280;31254;51.680;5.394;2023-04-10T06:05:07;101874.47;;;9.87;66.58
45523;BME280;31254;51.680;5.394;2023-04-10T06:07:34;101903.91;;;10.17;65.65
45523;BME280;31254;51.680;5.394;2023-04-10T06:10:01;101884.81;;;10.17;65.68
45523;BME280;31254;51.680;5.394;2023-04-10T06:12:28;101758.19;;;9.41;65.48
45523;BME280;31254;51.680;5.394;2023-04-10T06:14:55;101893.00;;;10.29;65.65
45523;BME280;31254;51.680;5.394;2023-04-10T06:17:22;101891.00;;;10.31;65.69
45523;BME280;31254;51.680;5.394;2023-04-10T06:19:51;101891.53;;;10.36;65.21
45523;BME280;31254;51.680;5.394;2023-04-10T06:22:20;101891.28;;;10.39;65.73
45523;BME280;31254;51.680;5.394;2023-04-10T06:24:46;101888.19;;;10.43;65.53
45523;BME280;31254;51.680;5.394;2023-04-10T06:27:17;101873.44;;;10.46;65.21
45523;BME280;31254;51.680;5.394;2023-04-10T06:30:01;101865.75;;;10.51;65.38
45523;BME280;31254;51.680;5.394;2023-04-10T06:32:29;101867.47;;;10.64;64.74
45523;BME280;31254;51.680;5.394;2023-04-10T06:34:56;101857.56;;;10.63;64.76
45523;BME280;31254;51.680;5.394;2023-04-10T06:37:30;101856.19;;;10.68;65.19
45523;BME280;31254;51.680;5.394;2023-04-10T06:40:05;101850.34;;;10.73;64.90
45523;BME280;31254;51.680;5.394;2023-04-10T06:42:32;101850.09;;;10.76;64.68
45523;BME280;31254;51.680;5.394;2023-04-10T06:45:02;101847.38;;;10.76;64.63
45523;BME280;31254;51.680;5.394;2023-04-10T06:47:31;101834.59;;;10.76;64.62
45523;BME280;31254;51.680;5.394;2023-04-10T06:50:01;101845.34;;;10.89;64.37
45523;BME280;31254;51.680;5.394;2023-04-10T06:52:31;101824.75;;;10.85;63.78
45523;BME280;31254;51.680;5.394;2023-04-10T06:55:00;101826.97;;;10.91;63.79
45523;BME280;31254;51.680;5.394;2023-04-10T06:57:27;101781.59;;;10.79;63.52
45523;BME280;31254;51.680;5.394;2023-04-10T06:59:54;101824.56;;;11.09;63.55
45523;BME280;31254;51.680;5.394;2023-04-10T07:02:22;101812.03;;;11.07;63.21
45523;BME280;31254;51.680;5.394;2023-04-10T07:04:49;101811.53;;;11.13;63.21
45523;BME280;31254;51.680;5.394;2023-04-10T07:07:19;101795.28;;;11.11;63.27
45523;BME280;31254;51.680;5.394;2023-04-10T07:09:46;101806.41;;;11.20;63.03
45523;BME280;31254;51.680;5.394;2023-04-10T07:12:13;101803.50;;;11.32;62.86
45523;BME280;31254;51.680;5.394;2023-04-10T07:14:43;101807.16;;;11.43;62.61
45523;BME280;31254;51.680;5.394;2023-04-10T07:17:12;101765.00;;;11.36;62.33
45523;BME280;31254;51.680;5.394;2023-04-10T07:19:41;101785.03;;;11.67;62.00
45523;BME280;31254;51.680;5.394;2023-04-10T07:22:08;101770.63;;;11.86;61.09
45523;BME280;31254;51.680;5.394;2023-04-10T07:24:37;101778.69;;;12.09;60.91
45523;BME280;31254;51.680;5.394;2023-04-10T07:27:04;101764.53;;;12.34;60.21
45523;BME280;31254;51.680;5.394;2023-04-10T07:29:30;101760.09;;;12.62;59.42
45523;BME280;31254;51.680;5.394;2023-04-10T07:31:57;101765.03;;;12.78;59.15
45523;BME280;31254;51.680;5.394;2023-04-10T07:34:24;101754.81;;;12.80;58.87
45523;BME280;31254;51.680;5.394;2023-04-10T07:36:51;101757.97;;;13.05;58.16
45523;BME280;31254;51.680;5.394;2023-04-10T07:39:18;101761.59;;;13.45;57.22
45523;BME280;31254;51.680;5.394;2023-04-10T07:41:45;101754.88;;;13.77;55.92
45523;BME280;31254;51.680;5.394;2023-04-10T07:44:12;101748.91;;;14.29;54.93
45523;BME280;31254;51.680;5.394;2023-04-10T07:46:40;101740.88;;;15.09;53.10
45523;BME280;31254;51.680;5.394;2023-04-10T07:49:07;101731.84;;;15.87;51.51
45523;BME280;31254;51.680;5.394;2023-04-10T07:51:34;101732.75;;;16.38;50.15
45523;BME280;31254;51.680;5.394;2023-04-10T07:54:02;101724.31;;;16.99;48.75
45523;BME280;31254;51.680;5.394;2023-04-10T07:56:32;101710.53;;;17.40;47.72
45523;BME280;31254;51.680;5.394;2023-04-10T07:58:59;101724.06;;;17.91;46.70
45523;BME280;31254;51.680;5.394;2023-04-10T08:01:29;101706.91;;;18.52;45.38
45523;BME280;31254;51.680;5.394;2023-04-10T08:03:56;101692.03;;;18.84;44.63
45523;BME280;31254;51.680;5.394;2023-04-10T08:06:23;101702.53;;;19.12;44.19
45523;BME280;31254;51.680;5.394;2023-04-10T08:08:53;101705.84;;;18.84;44.64
45523;BME280;31254;51.680;5.394;2023-04-10T08:13:56;101675.44;;;17.73;46.84
45523;BME280;31254;51.680;5.394;2023-04-10T08:16:29;101693.47;;;17.45;47.84
45523;BME280;31254;51.680;5.394;2023-04-10T08:18:57;101698.81;;;16.89;48.78
45523;BME280;31254;51.680;5.394;2023-04-10T08:21:25;101657.00;;;16.26;49.72
45523;BME280;31254;51.680;5.394;2023-04-10T08:23:56;101698.88;;;16.38;50.18
45523;BME280;31254;51.680;5.394;2023-04-10T08:26:24;101699.34;;;16.25;50.17
45523;BME280;31254;51.680;5.394;2023-04-10T08:28:55;101702.38;;;16.14;50.56
45523;BME280;31254;51.680;5.394;2023-04-10T08:31:24;101697.09;;;16.29;50.15
45523;BME280;31254;51.680;5.394;2023-04-10T08:33:57;101693.25;;;16.80;49.31
45523;BME280;31254;51.680;5.394;2023-04-10T08:36:43;101684.34;;;16.87;49.09
45523;BME280;31254;51.680;5.394;2023-04-10T08:39:13;101680.38;;;16.97;48.81
45523;BME280;31254;51.680;5.394;2023-04-10T08:41:40;101672.09;;;16.97;49.00
45523;BME280;31254;51.680;5.394;2023-04-10T08:44:07;101666.38;;;16.82;49.00
45523;BME280;31254;51.680;5.394;2023-04-10T08:46:36;101662.41;;;16.52;49.59
45523;BME280;31254;51.680;5.394;2023-04-10T08:49:14;101664.56;;;16.24;50.11
45523;BME280;31254;51.680;5.394;2023-04-10T08:51:55;101681.69;;;16.01;50.75
45523;BME280;31254;51.680;5.394;2023-04-10T08:54:33;101677.47;;;15.81;51.57
45523;BME280;31254;51.680;5.394;2023-04-10T08:57:02;101659.47;;;15.60;51.82
45523;BME280;31254;51.680;5.394;2023-04-10T08:59:36;101669.81;;;15.40;50.73
45523;BME280;31254;51.680;5.394;2023-04-10T09:02:05;101670.34;;;15.70;51.23
45523;BME280;31254;51.680;5.394;2023-04-10T09:04:36;101660.03;;;15.72;51.22
45523;BME280;31254;51.680;5.394;2023-04-10T09:07:05;101661.66;;;15.83;51.28
45523;BME280;31254;51.680;5.394;2023-04-10T09:09:35;101654.63;;;15.88;51.17
45523;BME280;31254;51.680;5.394;2023-04-10T09:12:02;101658.25;;;15.89;51.11
45523;BME280;31254;51.680;5.394;2023-04-10T09:14:33;101662.53;;;15.83;51.28
45523;BME280;31254;51.680;5.394;2023-04-10T09:17:13;101643.53;;;15.72;51.73
45523;BME280;31254;51.680;5.394;2023-04-10T09:19:42;101647.09;;;15.64;52.19
45523;BME280;31254;51.680;5.394;2023-04-10T09:22:12;101651.22;;;15.60;52.30
45523;BME280;31254;51.680;5.394;2023-04-10T09:24:42;101640.53;;;15.57;52.07
45523;BME280;31254;51.680;5.394;2023-04-10T09:27:10;101643.13;;;15.59;52.15
45523;BME280;31254;51.680;5.394;2023-04-10T09:29:53;101633.13;;;15.58;52.65
45523;BME280;31254;51.680;5.394;2023-04-10T09:32:43;101627.97;;;15.54;52.76
45523;BME280;31254;51.680;5.394;2023-04-10T09:35:14;101627.06;;;15.46;52.00
45523;BME280;31254;51.680;5.394;2023-04-10T09:37:45;101616.34;;;15.69;51.87
45523;BME280;31254;51.680;5.394;2023-04-10T09:40:23;101610.78;;;15.87;51.94
45523;BME280;31254;51.680;5.394;2023-04-10T09:42:51;101601.03;;;16.01;51.82
45523;BME280;31254;51.680;5.394;2023-04-10T09:45:18;101588.63;;;15.97;51.78
45523;BME280;31254;51.680;5.394;2023-04-10T09:48:05;101590.53;;;16.04;51.73
45523;BME280;31254;51.680;5.394;2023-04-10T09:50:37;101576.94;;;15.95;51.78
45523;BME280;31254;51.680;5.394;2023-04-10T09:53:07;101584.34;;;16.02;51.92
45523;BME280;31254;51.680;5.394;2023-04-10T09:55:36;101576.09;;;15.94;51.94
45523;BME280;31254;51.680;5.394;2023-04-10T09:58:04;101588.66;;;16.13;51.83
45523;BME280;31254;51.680;5.394;2023-04-10T10:03:08;101582.66;;;16.26;51.78
45523;BME280;31254;51.680;5.394;2023-04-10T10:05:41;101572.03;;;16.39;51.43
45523;BME280;31254;51.680;5.394;2023-04-10T10:08:09;101566.19;;;16.51;51.09
45523;BME280;31254;51.680;5.394;2023-04-10T10:10:41;101571.88;;;16.49;50.92
45523;BME280;31254;51.680;5.394;2023-04-10T10:13:15;101570.84;;;16.75;50.12
45523;BME280;31254;51.680;5.394;2023-04-10T10:20:52;101541.03;;;16.95;50.13
45523;BME280;31254;51.680;5.394;2023-04-10T10:23:21;101545.50;;;17.04;50.04
45523;BME280;31254;51.680;5.394;2023-04-10T10:25:49;101545.97;;;17.24;50.14
45523;BME280;31254;51.680;5.394;2023-04-10T10:28:17;101538.81;;;17.46;49.23
45523;BME280;31254;51.680;5.394;2023-04-10T10:30:47;101534.31;;;17.53;49.16
45523;BME280;31254;51.680;5.394;2023-04-10T10:33:20;101528.38;;;17.65;48.92
45523;BME280;31254;51.680;5.394;2023-04-10T10:35:47;101530.38;;;17.87;48.85
45523;BME280;31254;51.680;5.394;2023-04-10T10:38:16;101518.84;;;18.07;48.54
45523;BME280;31254;51.680;5.394;2023-04-10T10:40:47;101510.69;;;18.14;48.64
45523;BME280;31254;51.680;5.394;2023-04-10T10:43:35;101503.13;;;18.07;48.61
45523;BME280;31254;51.680;5.394;2023-04-10T10:46:06;101499.91;;;18.04;48.75
45523;BME280;31254;51.680;5.394;2023-04-10T10:48:34;101502.41;;;18.14;48.68
45523;BME280;31254;51.680;5.394;2023-04-10T10:51:01;101455.16;;;17.85;48.58
45523;BME280;31254;51.680;5.394;2023-04-10T10:55:57;101473.81;;;18.30;48.13
45523;BME280;31254;51.680;5.394;2023-04-10T10:58:46;101474.00;;;18.66;47.76
45523;BME280;31254;51.680;5.394;2023-04-10T11:01:18;101461.22;;;18.80;47.04
45523;BME280;31254;51.680;5.394;2023-04-10T11:03:46;101477.00;;;19.09;46.87
45523;BME280;31254;51.680;5.394;2023-04-10T11:06:15;101471.44;;;19.24;46.35
45523;BME280;31254;51.680;5.394;2023-04-10T11:08:46;101467.25;;;19.43;46.54
45523;BME280;31254;51.680;5.394;2023-04-10T11:11:21;101468.28;;;19.57;46.19
45523;BME280;31254;51.680;5.394;2023-04-10T11:16:44;101452.25;;;19.52;45.94
45523;BME280;31254;51.680;5.394;2023-04-10T11:19:13;101448.41;;;19.68;45.82
45523;BME280;31254;51.680;5.394;2023-04-10T11:22:01;101434.31;;;20.06;45.43
45523;BME280;31254;51.680;5.394;2023-04-10T11:24:58;101433.00;;;20.24;45.02
45523;BME280;31254;51.680;5.394;2023-04-10T11:27:46;101430.91;;;20.33;44.62
45523;BME280;31254;51.680;5.394;2023-04-10T11:30:34;101413.69;;;20.09;44.26
45523;BME280;31254;51.680;5.394;2023-04-10T11:33:03;101407.34;;;20.43;43.36
45523;BME280;31254;51.680;5.394;2023-04-10T11:35:32;101404.22;;;20.53;43.98
45523;BME280;31254;51.680;5.394;2023-04-10T11:40:55;101402.59;;;20.59;43.61
45523;BME280;31254;51.680;5.394;2023-04-10T11:43:22;101405.72;;;20.49;43.91
45523;BME280;31254;51.680;5.394;2023-04-10T11:45:57;101397.31;;;20.42;43.98
45523;BME280;31254;51.680;5.394;2023-04-10T11:48:26;101390.72;;;20.43;43.83
45523;BME280;31254;51.680;5.394;2023-04-10T11:50:54;101381.94;;;20.33;44.27
45523;BME280;31254;51.680;5.394;2023-04-10T11:53:26;101397.47;;;20.34;44.14
45523;BME280;31254;51.680;5.394;2023-04-10T11:55:58;101387.34;;;20.20;43.89
45523;BME280;31254;51.680;5.394;2023-04-10T11:58:28;101383.03;;;20.11;44.41
45523;BME280;31254;51.680;5.394;2023-04-10T12:01:02;101381.31;;;20.09;44.17
45523;BME280;31254;51.680;5.394;2023-04-10T12:03:45;101384.72;;;20.12;44.51
45523;BME280;31254;51.680;5.394;2023-04-10T12:06:13;101375.41;;;20.19;44.66
45523;BME280;31254;51.680;5.394;2023-04-10T12:08:46;101370.41;;;20.30;44.08
45523;BME280;31254;51.680;5.394;2023-04-10T12:11:23;101371.75;;;20.40;44.13
45523;BME280;31254;51.680;5.394;2023-04-10T12:13:56;101369.22;;;20.45;43.42
45523;BME280;31254;51.680;5.394;2023-04-10T12:16:24;101369.38;;;20.37;44.04
45523;BME280;31254;51.680;5.394;2023-04-10T12:18:53;101257.78;;;19.59;44.15
45523;BME280;31254;51.680;5.394;2023-04-10T12:21:21;101362.75;;;20.10;44.54
45523;BME280;31254;51.680;5.394;2023-04-10T12:23:49;101347.72;;;19.91;44.81
45523;BME280;31254;51.680;5.394;2023-04-10T12:26:23;101345.03;;;19.76;45.13
45523;BME280;31254;51.680;5.394;2023-04-10T12:28:52;101348.50;;;19.63;44.98
45523;BME280;31254;51.680;5.394;2023-04-10T12:31:35;101339.84;;;19.51;45.27
45523;BME280;31254;51.680;5.394;2023-04-10T12:34:03;101332.75;;;19.42;45.70
45523;BME280;31254;51.680;5.394;2023-04-10T12:36:31;101327.47;;;19.47;45.45
45523;BME280;31254;51.680;5.394;2023-04-10T12:39:01;101320.94;;;19.33;45.35
45523;BME280;31254;51.680;5.394;2023-04-10T12:41:32;101313.16;;;19.22;45.35
45523;BME280;31254;51.680;5.394;2023-04-10T12:44:12;101321.88;;;19.04;46.04
45523;BME280;31254;51.680;5.394;2023-04-10T12:46:41;101316.00;;;18.92;46.63
45523;BME280;31254;51.680;5.394;2023-04-10T12:49:15;101308.19;;;18.81;46.75
45523;BME280;31254;51.680;5.394;2023-04-10T12:51:47;101315.06;;;18.70;46.66
45523;BME280;31254;51.680;5.394;2023-04-10T12:54:32;101310.28;;;18.64;47.35
45523;BME280;31254;51.680;5.394;2023-04-10T12:57:00;101288.22;;;18.49;47.02
45523;BME280;31254;51.680;5.394;2023-04-10T12:59:28;101297.81;;;18.38;47.41
45523;BME280;31254;51.680;5.394;2023-04-10T13:01:55;101295.53;;;18.27;47.59
45523;BME280;31254;51.680;5.394;2023-04-10T13:04:22;101277.47;;;18.09;48.06
45523;BME280;31254;51.680;5.394;2023-04-10T13:06:49;101295.06;;;18.08;48.36
45523;BME280;31254;51.680;5.394;2023-04-10T13:09:21;101284.28;;;17.99;47.85
45523;BME280;31254;51.680;5.394;2023-04-10T13:11:50;101284.19;;;17.92;48.09
45523;BME280;31254;51.680;5.394;2023-04-10T13:14:17;101274.38;;;17.89;48.30
45523;BME280;31254;51.680;5.394;2023-04-10T13:16:46;101278.00;;;17.90;48.18
45523;BME280;31254;51.680;5.394;2023-04-10T13:19:12;101267.16;;;17.88;48.33
45523;BME280;31254;51.680;5.394;2023-04-10T13:21:41;101261.09;;;17.85;48.55
45523;BME280;31254;51.680;5.394;2023-04-10T13:24:08;101251.31;;;17.82;48.65
45523;BME280;31254;51.680;5.394;2023-04-10T13:26:41;101231.63;;;17.70;48.84
45523;BME280;31254;51.680;5.394;2023-04-10T13:29:07;101230.34;;;17.58;48.73
45523;BME280;31254;51.680;5.394;2023-04-10T13:31:34;101233.56;;;17.62;48.66
45523;BME280;31254;51.680;5.394;2023-04-10T13:34:01;101225.41;;;17.68;48.74
45523;BME280;31254;51.680;5.394;2023-04-10T13:36:31;101219.31;;;17.73;48.68
45523;BME280;31254;51.680;5.394;2023-04-10T13:38:57;101202.59;;;17.75;48.63
45523;BME280;31254;51.680;5.394;2023-04-10T13:41:24;101203.06;;;17.78;48.76
45523;BME280;31254;51.680;5.394;2023-04-10T13:43:52;101198.59;;;17.77;48.89
45523;BME280;31254;51.680;5.394;2023-04-10T13:46:21;101191.19;;;17.93;48.61